San Fernando Past Weather

Last 30 Days

High: 51ºf @8:57 AM    Low: 42ºf @5:57 AM     Approx. Precipitation / Rain Total: in.
Time (PST)Temp. (ºf)Humidity (%)Dew Point (ºf)Barometer (inHG)Wind Speed (mph)Wind DirectionWind Gust (mph)1hr. Precip / Rain Total (in.)Snow Depth
8:57 AM517443.01-3.48se5.21--
7:57 AM488343.09-0.87ese5.21--
6:57 AM429340.12-3.48e6.08--
5:57 AM429741.21-5.21nne6.95--
4:57 AM439541.67-3.48nne5.21--
3:57 AM449743.2-5.21e6.95--
2:57 AM439441.39-1.74sse4.34--
1:57 AM439441.39-3.48ese5.21--
12:57 AM449342.11-2.61ese5.21--
High: 58ºf @1:57 PM    Low: 46ºf @5:57 AM     Approx. Precipitation / Rain Total: in.
Time (PST)Temp. (ºf)Humidity (%)Dew Point (ºf)Barometer (inHG)Wind Speed (mph)Wind DirectionWind Gust (mph)1hr. Precip / Rain Total (in.)Snow Depth
11:57 PM469043.23-1.74n5.21--
10:57 PM469143.52-0.87nnw5.21--
9:57 PM479044.22-0.87nw3.48--
8:57 PM488443.4-2.61n6.08--
7:57 PM517844.38-3.48s5.21--
6:57 PM517543.36-3.48sw9.56--
5:57 PM527343.62-6.08ssw13.9--
4:57 PM536943.1-9.56wsw13.9--
3:57 PM546542.5-9.56wsw14.77--
2:57 PM556443.05-9.56sw17.38--
1:57 PM585843.31-9.56wsw17.38--
12:57 PM575440.52-13.9ssw24.33--
11:57 AM565740.98-15.64sw24.33--
10:57 AM556744.25-9.56sw23.46--
9:57 AM537244.22-13.9sw22.59--
8:57 AM508746.28-5.21wsw10.43--
7:57 AM479545.64-7.82sw13.03--
6:57 AM479445.36-4.34wsw13.03--
5:57 AM469544.65-10.43s13.9--
4:57 AM469143.52-6.08s8.69--
3:57 AM468642.05-7.82ssw9.56--
2:57 AM468642.05-6.08sse8.69--
1:57 AM468942.94-4.34wsw13.03--
12:57 AM469243.81-10.43s16.51--
High: 55ºf @3:57 PM    Low: 46ºf @10:57 PM     Approx. Precipitation / Rain Total: in.
Time (PST)Temp. (ºf)Humidity (%)Dew Point (ºf)Barometer (inHG)Wind Speed (mph)Wind DirectionWind Gust (mph)1hr. Precip / Rain Total (in.)Snow Depth
11:57 PM478943.93-11.3ssw15.64--
10:57 PM469644.92-7.82ssw14.77--
9:57 PM488543.71-9.56ssw14.77--
8:57 PM487841.47-9.56s13.03--
7:57 PM497240.37-10.43ssw19.12--
6:57 PM507341.69-9.56ssw13.9--
5:57 PM517242.3-6.08s19.99--
4:57 PM527142.89-7.82s20.86--
3:57 PM556643.85-15.64ssw24.33--
2:57 PM547847.3-15.64sw25.2--
1:57 PM537846.33-17.38ssw26.07--
12:57 PM519148.47-13.03sw20.86--
11:57 AM519750.18-6.95sw18.25--
10:57 AM528948.86-13.03s21.72--
9:57 AM509047.18-6.08sse21.72--
8:57 AM489847.46-11.3wsw20.86--
7:57 AM509548.62-10.43sse18.25--
6:57 AM509147.48-11.3s19.12--
5:57 AM509548.62-10.43sse20.86--
4:57 AM509448.34-12.17s19.12--
3:57 AM499848.46-6.95s14.77--
2:57 AM509849.46-8.69ssw15.64--
1:57 AM509448.34-9.56s14.77--
12:57 AM5110051-9.56s15.64--
High: 58ºf @1:57 PM    Low: 48ºf @1:57 AM     Approx. Precipitation / Rain Total: in.
Time (PST)Temp. (ºf)Humidity (%)Dew Point (ºf)Barometer (inHG)Wind Speed (mph)Wind DirectionWind Gust (mph)1hr. Precip / Rain Total (in.)Snow Depth
11:57 PM5110051-7.82s13.03--
10:57 PM519950.73-10.43s20.86--
9:57 PM519850.45-14.77sse25.2--
8:57 PM519850.45-13.9sse25.2--
7:57 PM519850.45-15.64sse23.46--
6:57 PM509749.18-13.03sse20.86--
5:57 PM509348.06-10.43ssw18.25--
4:57 PM528246.68-13.9ssw21.72--
3:57 PM547746.95-13.9s26.94--
2:57 PM557246.14-14.77s24.33--
1:57 PM586947.89-13.03s22.59--
12:57 PM567046.35-13.03s19.99--
11:57 AM567247.1-13.03s20.86--
10:57 AM547345.54-10.43sse17.38--
9:57 AM527945.69-8.69s14.77--
8:57 AM527945.69-9.56s13.9--
7:57 AM499046.2-6.08ssw10.43--
6:57 AM498945.9-6.95sse12.17--
5:57 AM488944.91-7.82s12.17--
4:57 AM489245.79-5.21sw9.56--
3:57 AM489045.21-5.21sse9.56--
2:57 AM489847.46-5.21sse6.95--
1:57 AM489546.64-5.21sw8.69--
12:57 AM498544.69-4.34ssw6.08--
High: 58ºf @12:57 PM    Low: 48ºf @5:57 AM     Approx. Precipitation / Rain Total: in.
Time (PST)Temp. (ºf)Humidity (%)Dew Point (ºf)Barometer (inHG)Wind Speed (mph)Wind DirectionWind Gust (mph)1hr. Precip / Rain Total (in.)Snow Depth
11:57 PM498544.69-5.21sw12.17--
10:57 PM498645-7.82sw11.3--
9:57 PM508345.04-6.95sw11.3--
8:57 PM508645.98-6.95wsw13.03--
7:57 PM518546.65-6.95wsw13.9--
6:57 PM538247.65-6.95wsw13.9--
5:57 PM547345.54-7.82ssw20.86--
4:57 PM557145.77-13.9sse19.99--
3:57 PM577047.31-11.3s17.38--
2:57 PM577147.69-11.3s19.12--
1:57 PM577549.15-10.43sse17.38--
12:57 PM587550.12-8.69s14.77--
11:57 AM577649.51-9.56s16.51--
10:57 AM558450.25-7.82s13.03--
9:57 AM548649.91-6.08ssw9.56--
8:57 AM529149.45-0.87sw2.61--
7:57 AM519349.05-0.87sw4.34--
6:57 AM509648.9-0.87nnw3.48--
5:57 AM489847.46-1.74nnw4.34--
4:57 AM499748.19-1.74wnw5.21--
3:57 AM489646.91-1.74nne6.95--
2:57 AM519549.62-6.08s17.38--
1:57 AM499647.91-3.48ssw12.17--
12:57 AM498845.6-1.74s6.08--
High: 73ºf @1:57 PM    Low: 46ºf @5:57 AM     Approx. Precipitation / Rain Total: in.
Time (PST)Temp. (ºf)Humidity (%)Dew Point (ºf)Barometer (inHG)Wind Speed (mph)Wind DirectionWind Gust (mph)1hr. Precip / Rain Total (in.)Snow Depth
11:57 PM518446.34-1.74e3.48--
10:57 PM518145.38---4.34--
9:57 PM537846.33-3.48nne4.34--
8:57 PM567648.54-2.61ese4.34--
7:57 PM567648.54-2.61nne6.08--
6:57 PM587048.27-4.34nw11.3--
5:57 PM606648.61-6.08w13.03--
4:57 PM665649.85-8.69wsw16.51--
3:57 PM703843.21-10.43wsw16.51--
2:57 PM723442.08-9.56wsw14.77--
1:57 PM733241.39-6.95ssw13.03--
12:57 PM723341.31-3.48w12.17--
11:57 AM703541.08-3.48w6.08--
10:57 AM665046.82-2.61wsw6.08--
9:57 AM606648.61-1.74sw4.34--
8:57 AM567247.1-1.74s4.34--
7:57 AM528146.35-1.74sse4.34--
6:57 AM479244.8-1.74n4.34--
5:57 AM469444.37-1.74s3.48--
4:57 AM469544.65-0.87ene3.48--
3:57 AM469544.65-3.48nne6.08--
2:57 AM479746.19-2.61e6.08--
1:57 AM489747.19-2.61e7.82--
12:57 AM499748.19-1.74nne5.21--
High: 67ºf @1:57 PM    Low: 48ºf @6:57 AM     Approx. Precipitation / Rain Total: in.
Time (PST)Temp. (ºf)Humidity (%)Dew Point (ºf)Barometer (inHG)Wind Speed (mph)Wind DirectionWind Gust (mph)1hr. Precip / Rain Total (in.)Snow Depth
11:57 PM499748.19-0.87nnw3.48--
10:57 PM509749.18-1.74s3.48--
9:57 PM519649.9-2.61ssw3.48--
8:57 PM529350.04-0.87nw5.21--
7:57 PM549051.13-4.34sw5.21--
6:57 PM558550.57-4.34sw9.56--
5:57 PM567748.89-5.21ssw12.17--
4:57 PM587249.02-8.69s16.51--
3:57 PM616549.15-10.43s15.64--
2:57 PM655447.94-8.69ssw13.9--
1:57 PM674444.36-7.82sw14.77--
12:57 PM645145.5-7.82w15.64--
11:57 AM646049.83-4.34wnw13.03--
10:57 AM617051.14-2.61wsw7.82--
9:57 AM577749.86-2.61s5.21--
8:57 AM549552.6-1.74nw4.34--
7:57 AM5010050-3.48sse6.08--
6:57 AM4810048-3.48e5.21--
5:57 AM4910049-1.74nne5.21--
4:57 AM4910049-2.61n3.48--
3:57 AM4910049-0.87nw2.61--
2:57 AM5010050---2.61--
1:57 AM5010050-0.87s5.21--
12:57 AM5010050-3.48s5.21--
High: 59ºf @1:57 PM    Low: 46ºf @4:57 AM     Approx. Precipitation / Rain Total: in.
Time (PST)Temp. (ºf)Humidity (%)Dew Point (ºf)Barometer (inHG)Wind Speed (mph)Wind DirectionWind Gust (mph)1hr. Precip / Rain Total (in.)Snow Depth
11:57 PM5010050-3.48n5.21--
10:57 PM5010050-1.74ssw4.34--
9:57 PM509949.73-4.34w7.82--
8:57 PM519950.73-4.34ssw5.21--
7:57 PM519048.17-2.61sw6.08--
6:57 PM519449.33-4.34sw6.95--
5:57 PM518646.96-5.21ssw6.95--
4:57 PM528647.94-3.48s9.56--
3:57 PM548549.59-4.34wnw6.95--
2:57 PM567748.89-4.34wsw9.56--
1:57 PM595542.85-6.95s11.3--
12:57 PM586345.47-2.61sw7.82--
11:57 AM576645.75-6.95s10.43--
10:57 AM576946.93-6.08ssw10.43--
9:57 AM567046.35-0.87ssw5.21--
8:57 AM508645.98-2.61ese4.34--
7:57 AM488844.62-1.74nne5.21--
6:57 AM488543.71-2.61se5.21--
5:57 AM488443.4-2.61ese8.69--
4:57 AM468942.94-5.21ese9.56--
3:57 AM478843.63-3.48ese5.21--
2:57 AM478843.63-4.34ese6.08--
1:57 AM488744.32-2.61ese6.08--
12:57 AM498344.06-6.95nne8.69--
High: 69ºf @2:57 PM    Low: 47ºf @5:57 AM     Approx. Precipitation / Rain Total: in.
Time (PST)Temp. (ºf)Humidity (%)Dew Point (ºf)Barometer (inHG)Wind Speed (mph)Wind DirectionWind Gust (mph)1hr. Precip / Rain Total (in.)Snow Depth
11:57 PM508044.08-3.48ne6.08--
10:57 PM508244.72-5.21ese6.08--
9:57 PM537645.64-2.61ese5.21--
8:57 PM537444.94-4.34n5.21--
7:57 PM556945.02-3.48sw6.95--
6:57 PM576846.54-3.48wsw12.17--
5:57 PM605443.3-9.56s18.25--
4:57 PM664745.18-10.43sse15.64--
3:57 PM683438.58-9.56s13.03--
2:57 PM693137.1-6.95sse11.3--
1:57 PM693338.69-6.08s9.56--
12:57 PM684042.77-1.74w6.08--
11:57 AM674544.95-1.74ssw4.34--
10:57 AM615846.11-0.87nw3.48--
9:57 AM576545.35---2.61--
8:57 AM537143.85---6.08--
7:57 AM497340.73-2.61ese5.21--
6:57 AM477439.15-0.87ene5.21--
5:57 AM477539.49-0.87n4.34--
4:57 AM477439.15-2.61ese4.34--
3:57 AM497039.65-0.87ne5.21--
2:57 AM497240.37-1.74nne4.34--
1:57 AM507040.61-0.87n5.21--
12:57 AM506940.24-2.61ese5.21--
High: 74ºf @2:57 PM    Low: 51ºf @11:57 PM     Approx. Precipitation / Rain Total: in.
Time (PST)Temp. (ºf)Humidity (%)Dew Point (ºf)Barometer (inHG)Wind Speed (mph)Wind DirectionWind Gust (mph)1hr. Precip / Rain Total (in.)Snow Depth
11:57 PM516840.81-2.61nne6.08--
10:57 PM526741.39-1.74ese5.21--
9:57 PM536541.55-1.74ese5.21--
8:57 PM566142.74-5.21e6.95--
7:57 PM585742.85---6.08--
6:57 PM595241.4-6.08wsw9.56--
5:57 PM625244.17-6.08w11.3--
4:57 PM702835.39-7.82s16.51--
3:57 PM722433.23-9.56ssw13.9--
2:57 PM742535.94-6.08s11.3--
1:57 PM742636.93-3.48sw6.95--
12:57 PM712836.25-2.61nne9.56--
11:57 AM713340.44-1.74e6.08--
10:57 AM634038.3-3.48sw6.95--
9:57 AM594839.34-4.34nw8.69--
8:57 AM595643.32-0.87se5.21--
7:57 AM544533.14-2.61ssw6.95--
6:57 AM573831.65-6.08nne13.9--
5:57 AM564032.02-7.82nne12.17--
4:57 AM564132.64-6.95nne9.56--
3:57 AM564233.24-3.48nne10.43--
2:57 AM544533.14-3.48n7.82--
1:57 AM573831.65-5.21nne11.3--
12:57 AM583631.2-6.08ne7.82--
High: 68ºf @1:57 PM    Low: 51ºf @12:57 AM     Approx. Precipitation / Rain Total: in.
Time (PST)Temp. (ºf)Humidity (%)Dew Point (ºf)Barometer (inHG)Wind Speed (mph)Wind DirectionWind Gust (mph)1hr. Precip / Rain Total (in.)Snow Depth
11:57 PM583530.51-3.48n6.08--
10:57 PM593531.39-2.61n6.08--
9:57 PM583631.2-3.48n13.9--
8:57 PM613130.15-8.69ne19.99--
7:57 PM623030.21-10.43ne19.99--
6:57 PM632930.24-11.3ne20.86--
5:57 PM652831.1-12.17ne26.94--
4:57 PM672429.02-14.77nne30.41--
3:57 PM682530.86-14.77nne27.81--
2:57 PM672731.91-16.51nne26.94--
1:57 PM682631.83-13.03ne28.68--
12:57 PM682732.77-17.38ne32.15--
11:57 AM663738.98-13.03nne28.68--
10:57 AM653335.19-19.99ne32.15--
9:57 AM643535.8-16.51ne31.28--
8:57 AM633836.99-14.77nne23.46--
7:57 AM584737.88-6.95nne18.25--
6:57 AM555036.7-5.21nne13.9--
5:57 AM535135.36-3.48nne6.95--
4:57 AM525234.93-5.21n7.82--
3:57 AM534733.32-4.34nne6.95--
2:57 AM544231.43---5.21--
1:57 AM51---2.61----
12:57 AM515133.51-5.21nne6.95--
High: 67ºf @3:57 PM    Low: 42ºf @5:57 AM     Approx. Precipitation / Rain Total: in.
Time (PST)Temp. (ºf)Humidity (%)Dew Point (ºf)Barometer (inHG)Wind Speed (mph)Wind DirectionWind Gust (mph)1hr. Precip / Rain Total (in.)Snow Depth
11:57 PM514731.49-2.61nne6.08--
10:57 PM524631.87-4.34nne6.95--
9:57 PM544432.58-6.95nne8.69--
8:57 PM544734.23-6.95nne10.43--
7:57 PM564836.59-2.61ene9.56--
5:57 PM604136.23-6.08nne10.43--
4:57 PM653234.42-5.21nne13.9--
3:57 PM672933.69-6.95n13.03--
2:57 PM673135.36-5.21n9.56--
1:57 PM664040.98-6.08nnw10.43--
12:57 PM664242.24-1.74nw8.69--
11:57 AM644441.65-3.48sw7.82--
10:57 AM605242.32-4.34sw7.82--
9:57 AM575842.37-0.87n6.95--
8:57 AM537143.85-4.34se5.21--
7:57 AM478141.48-0.87sse5.21--
6:57 AM438639.1-4.34nne4.34--
5:57 AM429239.85-0.87se4.34--
4:57 AM448640.09-5.21nne6.08--
3:57 AM429340.12-4.34ese7.82--
2:57 AM449542.66-3.48ne8.69--
1:57 AM459242.82-3.48ne6.08--
12:57 AM479545.64-5.21ne6.08--
High: 63ºf @3:57 PM    Low: 47ºf @11:57 PM     Approx. Precipitation / Rain Total: in.
Time (PST)Temp. (ºf)Humidity (%)Dew Point (ºf)Barometer (inHG)Wind Speed (mph)Wind DirectionWind Gust (mph)1hr. Precip / Rain Total (in.)Snow Depth
11:57 PM479746.19-2.61ne5.21--
10:57 PM489546.64-0.87ene5.21--
9:57 PM509147.48-4.34ne6.95--
8:57 PM529149.45-2.61wsw9.56--
7:57 PM538849.54-6.95wsw10.43--
6:57 PM558048.94-6.08w11.3--
5:57 PM576746.15-5.21ssw8.69--
4:57 PM625646.12-5.21wsw10.43--
3:57 PM635546.57-6.08w10.43--
2:57 PM606246.94-4.34sw9.56--
1:57 PM606548.2-0.87sw9.56--
12:57 PM596647.66-6.95wsw14.77--
11:57 AM606548.2-5.21wsw10.43--
10:57 AM606749.01-2.61sw7.82--
9:57 AM567548.19-1.74w5.21--
8:57 AM528347-3.48ne5.21--
7:57 AM499447.35-0.87ese5.21--
6:57 AM489446.36-2.61ssw6.08--
5:57 AM479746.19-5.21n9.56--
4:57 AM489947.73-6.95e9.56--
3:57 AM4810048-4.34wnw19.12--
2:57 AM5010050-6.95wnw11.3--
1:57 AM5010050-2.61n5.21--
12:57 AM5010050---2.61--
High: 55ºf @2:57 PM    Low: 50ºf @7:57 PM     Approx. Precipitation / Rain Total: in.
Time (PST)Temp. (ºf)Humidity (%)Dew Point (ºf)Barometer (inHG)Wind Speed (mph)Wind DirectionWind Gust (mph)1hr. Precip / Rain Total (in.)Snow Depth
11:57 PM5010050-1.74wsw5.21--
10:57 PM5110051-5.21ssw7.82--
9:57 PM5110051-1.74s11.3--
8:57 PM5110051-6.08s10.43--
7:57 PM5010050-5.21ssw8.69--
6:57 PM5010050-6.08ssw10.43--
5:57 PM519850.45-6.95s13.9--
4:57 PM529751.17-6.95s16.51--
3:57 PM549452.31-9.56s19.12--
2:57 PM558751.2-7.82sse15.64--
1:57 PM558751.2-13.03ese21.72--
12:57 PM549753.17-11.3sse18.25--
11:57 AM559854.44-4.34se11.3--
10:57 AM539952.73-8.69s13.9--
9:57 AM549552.6-5.21se13.03--
8:57 AM539952.73-6.08sse11.3--
7:57 AM529951.73-0.87ne11.3--
6:57 AM529951.73-6.95se13.9--
5:57 AM539651.89-9.56se17.38--
4:57 AM5210052-6.95se13.9--
3:57 AM519950.73-6.08sse15.64--
2:57 AM529650.89-12.17sse18.25--
1:57 AM529650.89-13.03sse18.25--
12:57 AM519950.73-6.95sse14.77--
High: 54ºf @10:57 AM    Low: 51ºf @11:57 PM     Approx. Precipitation / Rain Total: in.
Time (PST)Temp. (ºf)Humidity (%)Dew Point (ºf)Barometer (inHG)Wind Speed (mph)Wind DirectionWind Gust (mph)1hr. Precip / Rain Total (in.)Snow Depth
11:57 PM519850.45-8.69sse15.64--
10:57 PM519750.18-6.08sse15.64--
9:57 PM529550.61-7.82se13.03--
8:57 PM519649.9-3.48ssw12.17--
7:57 PM519750.18-2.61se8.69--
6:57 PM519750.18-2.61se15.64--
5:57 PM519850.45-9.56sse20.86--
4:57 PM529751.17-12.17sse20.86--
3:57 PM539752.17-13.03sse22.59--
2:57 PM539852.45-14.77sse25.2--
1:57 PM539752.17-17.38sse27.81--
12:57 PM549753.17-15.64sse28.68--
11:57 AM539852.45-14.77sse26.94--
10:57 AM549452.31-13.9se27.81--
9:57 AM539451.32-14.77se25.2--
8:57 AM529751.17-10.43sse19.12--
7:57 AM529851.45-8.69sse19.99--
6:57 AM529650.89-13.9se19.99--
5:57 AM519950.73-11.3sse18.25--
4:57 AM529851.45-13.03sse21.72--
3:57 AM529951.73-13.03sse24.33--
2:57 AM529951.73-13.9s22.59--
1:57 AM5210052-9.56s16.51--
12:57 AM5210052-10.43s16.51--
High: 59ºf @12:57 PM    Low: 47ºf @6:57 AM     Approx. Precipitation / Rain Total: in.
Time (PST)Temp. (ºf)Humidity (%)Dew Point (ºf)Barometer (inHG)Wind Speed (mph)Wind DirectionWind Gust (mph)1hr. Precip / Rain Total (in.)Snow Depth
11:57 PM529951.73-6.08sse10.43--
10:57 PM529951.73-3.48s8.69--
9:57 PM529851.45-4.34ssw12.17--
8:57 PM529650.89-6.95ssw14.77--
7:57 PM539651.89-6.95ssw10.43--
6:57 PM549452.31-6.08s9.56--
5:57 PM558951.82-3.48ssw11.3--
4:57 PM577549.15-9.56s14.77--
3:57 PM587550.12-6.95ssw13.03--
2:57 PM587249.02-10.43s15.64--
1:57 PM587148.65-10.43ssw14.77--
12:57 PM596748.06-8.69s14.77--
11:57 AM577448.79-8.69s16.51--
10:57 AM577649.51-4.34ssw9.56--
9:57 AM577749.86-2.61sw6.08--
8:57 AM509849.46-2.61n3.48--
7:57 AM479946.73---5.21--
6:57 AM4710047-5.21nne6.08--
5:57 AM4710047-3.48nne4.34--
4:57 AM489947.73---1.74--
3:57 AM489947.73-0.87wsw5.21--
2:57 AM499948.73-2.61w6.08--
1:57 AM499748.19-2.61sw6.08--
12:57 AM499748.19-4.34w6.08--
High: 64ºf @12:57 PM    Low: 46ºf @5:57 AM     Approx. Precipitation / Rain Total: in.
Time (PST)Temp. (ºf)Humidity (%)Dew Point (ºf)Barometer (inHG)Wind Speed (mph)Wind DirectionWind Gust (mph)1hr. Precip / Rain Total (in.)Snow Depth
11:57 PM518747.27-3.48e6.08--
10:57 PM509047.18-3.48ese5.21--
9:57 PM518847.57-2.61sw13.03--
8:57 PM528046.02-9.56wsw13.9--
7:57 PM527845.36-8.69wsw14.77--
6:57 PM537645.64-6.08wsw13.03--
5:57 PM547445.9-9.56wsw14.77--
4:57 PM567247.1-9.56wsw13.03--
3:57 PM597049.23-7.82sse17.38--
2:57 PM606548.2-11.3sse16.51--
1:57 PM626047.95-13.9ssw17.38--
12:57 PM645647.98-6.08sw12.17--
11:57 AM625043.14-5.21wsw8.69--
10:57 AM605443.3-2.61w5.21--
9:57 AM546944.06-1.74ssw3.48--
8:57 AM527042.52---2.61--
7:57 AM487741.14-0.87nne4.34--
6:57 AM468140.5-3.48nne3.48--
5:57 AM468341.13---3.48--
4:57 AM468040.18-1.74se3.48--
3:57 AM477639.83-2.61se3.48--
2:57 AM478643.03---4.34--
1:57 AM488042.13-3.48ene6.08--
12:57 AM488744.32-0.87ne3.48--
High: 72ºf @2:57 PM    Low: 42ºf @6:57 AM     Approx. Precipitation / Rain Total: in.
Time (PST)Temp. (ºf)Humidity (%)Dew Point (ºf)Barometer (inHG)Wind Speed (mph)Wind DirectionWind Gust (mph)1hr. Precip / Rain Total (in.)Snow Depth
11:57 PM498544.69---5.21--
10:57 PM508445.36-0.87e3.48--
9:57 PM528948.86-0.87n4.34--
8:57 PM528748.25-3.48nnw8.69--
7:57 PM548248.63-4.34wnw6.95--
6:57 PM577549.15-3.48wnw6.08--
5:57 PM596547.25-4.34w9.56--
4:57 PM645949.38-6.08wsw11.3--
3:57 PM694446.17-6.95wsw9.56--
2:57 PM723240.52-3.48wsw7.82--
1:57 PM693741.63-3.48s7.82--
12:57 PM673538.44-3.48wsw6.95--
11:57 AM623836.1-4.34sw6.08--
10:57 AM604337.44-2.61sw5.21--
9:57 AM555639.59-2.61ssw5.21--
8:57 AM545839.56---3.48--
7:57 AM486938.32-2.61e5.21--
6:57 AM427333.98-0.87sse7.82--
5:57 AM437033.9-3.48ene5.21--
4:57 AM437435.29-1.74e3.48--
3:57 AM447135.21-1.74ne4.34--
2:57 AM467538.53-3.48ene6.08--
1:57 AM457637.9-3.48ese6.95--
12:57 AM467538.53-4.34e7.82--
High: 66ºf @1:57 PM    Low: 41ºf @5:57 AM     Approx. Precipitation / Rain Total: in.
Time (PST)Temp. (ºf)Humidity (%)Dew Point (ºf)Barometer (inHG)Wind Speed (mph)Wind DirectionWind Gust (mph)1hr. Precip / Rain Total (in.)Snow Depth
11:57 PM487540.46-6.08ene10.43--
10:57 PM497441.08-4.34ne8.69--
8:57 PM526339.8-4.34n7.82--
7:57 PM545940-4.34nnw10.43--
6:57 PM555438.66-3.48n14.77--
5:57 PM584938.95-9.56wnw13.9--
4:57 PM616448.73-7.82w11.3--
3:57 PM635847.99-7.82w14.77--
2:57 PM655246.94-6.95w12.17--
1:57 PM664946.28-4.34wsw10.43--
12:57 PM645044.98-4.34w8.69--
11:57 AM615243.25-3.48w6.08--
10:57 AM576545.35-2.61wnw5.21--
9:57 AM567146.73-1.74sw4.34--
8:57 AM508345.04-1.74ssw4.34--
7:57 AM469243.81-2.61wnw3.48--
6:57 AM439842.47-2.61e6.95--
5:57 AM419840.48-5.21nne8.69--
4:57 AM429741.21-6.95ese7.82--
3:57 AM429841.48-2.61nne8.69--
2:57 AM439742.21-4.34nne6.95--
1:57 AM439842.47-6.08e7.82--
12:57 AM449642.93---4.34--
High: 61ºf @1:57 PM    Low: 40ºf @4:57 AM     Approx. Precipitation / Rain Total: in.
Time (PST)Temp. (ºf)Humidity (%)Dew Point (ºf)Barometer (inHG)Wind Speed (mph)Wind DirectionWind Gust (mph)1hr. Precip / Rain Total (in.)Snow Depth
11:57 PM449542.66-3.48n4.34--
10:57 PM469344.09-4.34e6.08--
9:57 PM488944.91-2.61w6.95--
8:57 PM488744.32-5.21nw7.82--
7:57 PM498544.69-5.21wnw10.43--
6:57 PM517844.38-8.69w15.64--
5:57 PM537244.22-9.56w14.77--
4:57 PM566343.58-6.08w10.43--
3:57 PM605644.26-6.08wsw12.17--
2:57 PM605543.78-6.08wnw11.3--
1:57 PM615645.19-5.21wsw12.17--
12:57 PM595944.69-4.34w12.17--
11:57 AM576143.68-3.48wsw8.69--
10:57 AM566444-2.61w8.69--
9:57 AM537143.85-0.87w4.34--
8:57 AM517844.38-2.61ese4.34--
7:57 AM469043.23---5.21--
6:57 AM429640.94-3.48ese5.21--
5:57 AM439541.67-0.87nne6.95--
4:57 AM409237.87-5.21ese6.95--
3:57 AM429239.85-3.48nne5.21--
2:57 AM429139.57-0.87ese5.21--
1:57 AM438839.69-4.34ne5.21--
12:57 AM438739.4-4.34ese6.08--
High: 66ºf @2:57 PM    Low: 41ºf @6:57 AM     Approx. Precipitation / Rain Total: in.
Time (PST)Temp. (ºf)Humidity (%)Dew Point (ºf)Barometer (inHG)Wind Speed (mph)Wind DirectionWind Gust (mph)1hr. Precip / Rain Total (in.)Snow Depth
11:57 PM458340.15-1.74e5.21--
10:57 PM458139.53-2.61se4.34--
9:57 PM478342.11-0.87ese2.61--
8:57 PM488142.45-0.87nnw6.08--
7:57 PM507743.08-3.48wnw6.95--
6:57 PM526641-4.34wnw10.43--
5:57 PM545437.73-6.08w12.17--
4:57 PM594135.33-9.56wsw15.64--
3:57 PM623936.76-10.43wsw16.51--
2:57 PM663033.67-6.95sw13.9--
1:57 PM643435.07-9.56s14.77--
12:57 PM633131.89-7.82s13.03--
11:57 AM643636.51-1.74sw6.08--
10:57 AM603532.27-0.87sw4.34--
9:57 AM543828.97-1.74sw4.34--
8:57 AM524933.44-1.74se3.48--
7:57 AM474928.84-0.87n6.08--
6:57 AM416028.19-1.74se5.21--
5:57 AM435427.51-2.61nne6.08--
4:57 AM435527.95-5.21ese6.08--
3:57 AM445629.32-3.48ese6.08--
2:57 AM435929.66-5.21ssw6.95--
1:57 AM435728.82-3.48nnw8.69--
12:57 AM455228.45-2.61nne4.34--
High: 64ºf @2:57 PM    Low: 42ºf @5:57 AM     Approx. Precipitation / Rain Total: in.
Time (PST)Temp. (ºf)Humidity (%)Dew Point (ºf)Barometer (inHG)Wind Speed (mph)Wind DirectionWind Gust (mph)1hr. Precip / Rain Total (in.)Snow Depth
11:57 PM474928.84-3.48nne8.69--
10:57 PM485331.69-5.21ese6.08--
9:57 PM485130.74-2.61se4.34--
8:57 PM504428.95-3.48n6.95--
7:57 PM543627.66-6.95nne12.17--
6:57 PM543929.61-7.82nne13.03--
5:57 PM573529.62-7.82nne10.43--
4:57 PM622525.78-5.21nne14.77--
3:57 PM632526.63-8.69ne15.64--
2:57 PM642325.46-8.69ne15.64--
1:57 PM632425.64-9.56nne14.77--
12:57 PM612524.93-8.69nne15.64--
11:57 AM612524.93-8.69ne16.51--
10:57 AM602625.02-10.43ene16.51--
9:57 AM573529.62-1.74w4.34--
8:57 AM503825.4-2.61nnw8.69--
7:57 AM464224.21-5.21nne13.03--
6:57 AM444423.5-5.21nne13.9--
5:57 AM425024.72-3.48nne6.95--
4:57 AM425125.2-4.34nne6.08--
3:57 AM434824.67-4.34nne6.95--
2:57 AM454424.41-6.08nne9.56--
1:57 AM425125.2-4.34nne6.95--
12:57 AM425527.02-2.61ese6.08--
High: 63ºf @2:57 PM    Low: 42ºf @2:57 AM     Approx. Precipitation / Rain Total: in.
Time (PST)Temp. (ºf)Humidity (%)Dew Point (ºf)Barometer (inHG)Wind Speed (mph)Wind DirectionWind Gust (mph)1hr. Precip / Rain Total (in.)Snow Depth
11:57 PM435527.95-4.34ese6.95--
10:57 PM445026.57-4.34n10.43--
9:57 PM474526.77-7.82nne9.56--
8:57 PM494025.74-6.95nne10.43--
7:57 PM494226.92-7.82nne10.43--
6:57 PM514027.54-7.82nne12.17--
5:57 PM543526.97-8.69nne13.03--
4:57 PM602927.66-6.08n13.03--
3:57 PM632526.63-4.34n11.3--
2:57 PM632324.62-3.48ene13.03--
1:57 PM632324.62-6.08ne13.9--
12:57 PM612726.78-6.95ne19.12--
11:57 AM602423.11-10.43ene15.64--
10:57 AM572521.54-6.08nne12.17--
9:57 AM542821.64-8.69nne17.38--
8:57 AM494025.74-2.61wsw5.21--
7:57 AM473822.73-8.69nne15.64--
6:57 AM444021.25-11.3nne19.99--
5:57 AM434322.05-10.43nne15.64--
4:57 AM424522.22-5.21nne16.51--
3:57 AM444222.4-11.3nne15.64--
2:57 AM424823.75-8.69nne10.43--
1:57 AM434925.16-2.61nne5.21--
12:57 AM444423.5-3.48nne6.08--
High: 60ºf @2:57 PM    Low: 40ºf @6:57 AM     Approx. Precipitation / Rain Total: in.
Time (PST)Temp. (ºf)Humidity (%)Dew Point (ºf)Barometer (inHG)Wind Speed (mph)Wind DirectionWind Gust (mph)1hr. Precip / Rain Total (in.)Snow Depth
11:57 PM434623.65-0.87ese7.82--
10:57 PM425125.2-3.48ese11.3--
9:57 PM454122.73-3.48nne4.34--
8:57 PM473621.45-0.87n8.69--
7:57 PM493220.44-2.61nne8.69--
6:57 PM493421.87-6.08nne10.43--
5:57 PM532619.05-8.69nne15.64--
4:57 PM562520.69-9.56ne21.72--
3:57 PM592422.27-10.43n19.99--
2:57 PM602423.11-8.69n18.25--
1:57 PM592624.17-10.43n22.59--
12:57 PM572622.46-13.9nne26.94--
11:57 AM563025.01-11.3n33.02--
10:57 AM523223.07-13.9nne32.15--
9:57 AM513322.92-18.25n30.41--
8:57 AM504428.95-12.17n20.86--
7:57 AM446733.76-6.08n13.03--
6:57 AM407332.06-6.95n13.03--
5:57 AM436632.43-9.56nne13.9--
4:57 AM407432.39-2.61sw10.43--
3:57 AM417333.02-6.08n8.69--
2:57 AM416931.62-4.34ene6.95--
1:57 AM416931.62-2.61ene11.3--
12:57 AM456031.96-8.69nw19.12--
High: 58ºf @2:57 PM    Low: 39ºf @5:57 AM     Approx. Precipitation / Rain Total: in.
Time (PST)Temp. (ºf)Humidity (%)Dew Point (ºf)Barometer (inHG)Wind Speed (mph)Wind DirectionWind Gust (mph)1hr. Precip / Rain Total (in.)Snow Depth
11:57 PM456132.37-13.9nnw22.59--
10:57 PM446131.43-9.56-17.38--
9:57 PM446231.83-1.74n16.51--
8:57 PM465731.63-14.77nnw27.81--
7:57 PM465530.75-6.08n19.99--
6:57 PM475531.68-6.08nnw17.38--
5:57 PM485331.69-13.9nnw19.99--
4:57 PM505132.59-16.51nnw28.68--
3:57 PM525536.34-16.51nnw26.07--
2:57 PM583933.18-5.21ssw12.17--
1:57 PM574334.73-5.21wsw11.3--
12:57 PM574636.43-4.34sw8.69--
11:57 AM565138.13-3.48wnw7.82--
10:57 AM525435.88-4.34w6.95--
9:57 AM507241.33-2.61wnw4.34--
8:57 AM487841.47-1.74sse4.34--
7:57 AM438739.4-1.74nne4.34--
6:57 AM409538.69-3.48ne6.08--
5:57 AM399437.42-4.34e6.95--
4:57 AM419639.95-3.48ese4.34--
3:57 AM429540.67-2.61ssw4.34--
2:57 AM429239.85-0.87nne3.48--
1:57 AM429440.4-3.48nne4.34--
12:57 AM448840.68-0.87n4.34--
High: 49ºf @5:57 PM    Low: 44ºf @11:57 PM     Approx. Precipitation / Rain Total: in.
Time (PST)Temp. (ºf)Humidity (%)Dew Point (ºf)Barometer (inHG)Wind Speed (mph)Wind DirectionWind Gust (mph)1hr. Precip / Rain Total (in.)Snow Depth
11:57 PM449442.39-3.48nne5.21--
10:57 PM458741.37-1.74nne4.34--
9:57 PM468541.75-2.61n6.08--
8:57 PM468040.18-4.34s8.69--
7:57 PM477940.83-6.95sse11.3--
6:57 PM477740.17-7.82sse11.3--
5:57 PM497340.73-5.21sw9.56--
Past Weather Disclaimer Note regarding "Approx. Precipitation / Rain Total"

Currently

Clear 50°F
30.10in
Barometer
76%
Humidity
North 0.0mph
Wind
Clear

Past Weather Nearby

More Local Information

Bookmark and Share